createdAt,value
2022-11-10T00:01:51.912Z,90.12
2022-11-10T00:03:53.525Z,89.64
2022-11-10T00:05:55.833Z,89.58
2022-11-10T00:07:57.929Z,89.61
2022-11-10T00:09:59.620Z,90.38
2022-11-10T00:12:01.044Z,89.71
2022-11-10T00:14:21.055Z,89.96
2022-11-10T00:16:40.794Z,89.93
2022-11-10T00:18:42.211Z,90.44
2022-11-10T00:20:43.658Z,90.52
2022-11-10T00:22:45.118Z,90.54
2022-11-10T00:24:47.063Z,90.62
2022-11-10T00:26:48.519Z,90.71
2022-11-10T00:28:49.990Z,90.54
2022-11-10T00:30:51.639Z,90.84
2022-11-10T00:32:53.082Z,91.06
2022-11-10T00:34:54.504Z,90.88
2022-11-10T00:36:55.945Z,90.74
2022-11-10T00:38:57.427Z,91.29
2022-11-10T00:41:02.335Z,90.86
2022-11-10T00:43:03.743Z,91.52
2022-11-10T00:45:05.907Z,91.44
2022-11-10T00:47:07.343Z,91.34
2022-11-10T00:49:08.831Z,91.67
2022-11-10T00:51:24.030Z,91.33
2022-11-10T00:53:25.558Z,91.90
2022-11-10T00:55:27.019Z,92.25
2022-11-10T00:57:28.435Z,91.74
2022-11-10T00:59:29.862Z,92.09
2022-11-10T01:01:31.498Z,92.62
2022-11-10T01:03:33.133Z,91.91
2022-11-10T01:05:38.345Z,92.55
2022-11-10T01:07:39.810Z,92.56
2022-11-10T01:09:41.247Z,92.76
2022-11-10T01:11:42.758Z,93.09
2022-11-10T01:13:45.042Z,92.75
2022-11-10T01:15:46.477Z,93.18
2022-11-10T01:17:48.087Z,93.16
2022-11-10T01:19:49.491Z,92.92
2022-11-10T01:21:52.248Z,92.75
2022-11-10T01:23:53.970Z,93.42
2022-11-10T01:26:04.716Z,93.81
2022-11-10T01:28:06.152Z,93.05
2022-11-10T01:30:08.037Z,93.12
2022-11-10T01:32:09.504Z,93.56
2022-11-10T01:34:10.919Z,93.30
2022-11-10T01:36:12.815Z,93.27
2022-11-10T01:38:14.239Z,93.67
2022-11-10T01:40:15.791Z,93.39
2022-11-10T01:42:24.669Z,93.17
2022-11-10T01:44:26.027Z,93.68
2022-11-10T01:46:27.482Z,93.23
2022-11-10T01:48:59.931Z,93.10
2022-11-10T01:51:14.482Z,93.06
2022-11-10T01:53:23.736Z,93.46
2022-11-10T01:55:26.192Z,93.06
2022-11-10T01:57:28.275Z,93.69
2022-11-10T01:59:35.471Z,93.06
2022-11-10T02:01:36.893Z,93.42
2022-11-10T02:04:00.183Z,93.29
2022-11-10T02:06:02.086Z,93.90
2022-11-10T02:08:05.285Z,93.23
2022-11-10T02:10:14.392Z,93.75
2022-11-10T02:12:16.101Z,93.68
2022-11-10T02:14:17.722Z,93.20
2022-11-10T02:16:19.394Z,93.66
2022-11-10T02:18:20.840Z,93.50
2022-11-10T02:20:22.388Z,93.32
2022-11-10T02:22:23.845Z,93.81
2022-11-10T02:24:25.272Z,93.68
2022-11-10T02:26:30.150Z,93.25
2022-11-10T02:28:38.334Z,93.51
2022-11-10T02:30:39.776Z,93.75
2022-11-10T02:32:41.248Z,93.74
2022-11-10T02:34:42.922Z,93.94
2022-11-10T02:36:44.360Z,93.39
2022-11-10T02:38:45.763Z,94.02
2022-11-10T02:40:49.234Z,93.65
2022-11-10T02:42:50.646Z,93.94
2022-11-10T02:44:52.111Z,93.29
2022-11-10T02:46:53.579Z,94.32
2022-11-10T02:48:55.048Z,93.92
2022-11-10T02:50:56.476Z,93.96
2022-11-10T02:52:57.889Z,93.94
2022-11-10T02:54:59.363Z,93.76
2022-11-10T02:57:02.711Z,94.20
2022-11-10T02:59:04.862Z,94.34
2022-11-10T03:01:07.003Z,94.39
2022-11-10T03:03:08.511Z,94.01
2022-11-10T03:05:10.430Z,94.14
2022-11-10T03:07:11.945Z,94.58
2022-11-10T03:09:13.383Z,94.54
2022-11-10T03:11:14.801Z,95.03
2022-11-10T03:13:16.244Z,94.55
2022-11-10T03:15:17.737Z,94.65
2022-11-10T03:17:19.255Z,95.03
2022-11-10T03:19:20.673Z,94.81
2022-11-10T03:21:22.205Z,94.99
2022-11-10T03:23:24.616Z,94.68
2022-11-10T03:25:26.324Z,94.92
2022-11-10T03:27:27.898Z,94.83
2022-11-10T03:29:29.383Z,95.50
2022-11-10T03:31:30.799Z,95.29
2022-11-10T03:33:32.904Z,94.82
2022-11-10T03:35:34.417Z,95.19
2022-11-10T03:37:35.842Z,95.48
2022-11-10T03:39:37.649Z,94.69
2022-11-10T03:41:39.062Z,95.03
2022-11-10T03:43:40.507Z,95.06
2022-11-10T03:45:44.456Z,95.13
2022-11-10T03:47:47.828Z,94.63
2022-11-10T03:49:49.235Z,95.03
2022-11-10T03:51:50.660Z,95.44
2022-11-10T03:53:52.116Z,95.73
2022-11-10T03:55:53.531Z,95.41
2022-11-10T03:57:54.938Z,95.02
2022-11-10T03:59:56.376Z,96.10
2022-11-10T04:01:57.946Z,95.10
2022-11-10T04:03:59.425Z,95.83
2022-11-10T04:06:19.373Z,94.94
2022-11-10T04:08:39.150Z,95.01
2022-11-10T04:10:40.598Z,95.98
2022-11-10T04:13:00.665Z,96.15
2022-11-10T04:15:20.490Z,95.98
2022-11-10T04:17:21.928Z,95.85
2022-11-10T04:19:23.525Z,95.48
2022-11-10T04:21:24.973Z,95.81
2022-11-10T04:23:34.841Z,96.38
2022-11-10T04:25:56.226Z,96.11
2022-11-10T04:27:57.643Z,96.45
2022-11-10T04:29:59.051Z,96.51
2022-11-10T04:32:00.505Z,95.74
2022-11-10T04:34:01.907Z,96.21
2022-11-10T04:36:04.248Z,95.66
2022-11-10T04:38:05.684Z,95.20
2022-11-10T04:40:07.550Z,95.44
2022-11-10T04:42:09.002Z,95.66
2022-11-10T04:44:10.420Z,96.19
2022-11-10T04:46:19.444Z,96.13
2022-11-10T04:48:20.958Z,95.91
2022-11-10T04:50:22.417Z,95.76
2022-11-10T04:52:23.935Z,95.61
2022-11-10T04:54:25.492Z,95.73
2022-11-10T04:56:27.586Z,96.00
2022-11-10T04:58:29.079Z,95.27
2022-11-10T05:00:30.540Z,95.86
2022-11-10T05:02:35.615Z,96.33
2022-11-10T05:04:40.746Z,96.27
2022-11-10T05:06:42.270Z,96.16
2022-11-10T05:08:44.451Z,96.17
2022-11-10T05:10:45.870Z,95.63
2022-11-10T05:12:47.317Z,95.62
2022-11-10T05:14:48.741Z,95.65
2022-11-10T05:16:50.160Z,96.21
2022-11-10T05:18:54.180Z,96.40
2022-11-10T05:20:55.640Z,96.00
2022-11-10T05:23:15.503Z,96.64
2022-11-10T05:25:17.035Z,96.66
2022-11-10T05:27:18.498Z,96.49
2022-11-10T05:29:19.898Z,96.82
2022-11-10T05:31:21.321Z,96.77
2022-11-10T05:33:23.121Z,97.32
2022-11-10T05:35:25.438Z,97.35
2022-11-10T05:37:26.892Z,97.31
2022-11-10T05:39:28.316Z,97.09
2022-11-10T05:41:29.757Z,96.86
2022-11-10T05:43:31.146Z,96.85
2022-11-10T05:45:32.569Z,97.24
2022-11-10T05:47:37.272Z,96.94
2022-11-10T05:49:38.678Z,97.77
2022-11-10T05:51:40.093Z,97.36
2022-11-10T05:53:41.505Z,97.53
2022-11-10T05:55:43.011Z,97.75
2022-11-10T05:57:48.818Z,97.30
2022-11-10T05:59:50.226Z,97.55
2022-11-10T06:01:51.812Z,97.43
2022-11-10T06:03:53.264Z,97.71
2022-11-10T06:05:54.763Z,97.79
2022-11-10T06:07:56.556Z,98.38
2022-11-10T06:09:57.969Z,97.75
2022-11-10T06:11:59.403Z,98.28
2022-11-10T06:14:00.919Z,97.72
2022-11-10T06:16:02.351Z,97.99
2022-11-10T06:18:03.903Z,98.15
2022-11-10T06:20:05.879Z,98.38
2022-11-10T06:22:08.026Z,98.41
2022-11-10T06:24:11.078Z,98.55
2022-11-10T06:26:12.528Z,98.23
2022-11-10T06:28:14.960Z,98.31
2022-11-10T06:30:16.797Z,98.39
2022-11-10T06:32:18.232Z,97.91
2022-11-10T06:34:19.640Z,98.50
2022-11-10T06:36:21.667Z,98.48
2022-11-10T06:38:23.117Z,98.18
2022-11-10T06:40:24.560Z,98.01
2022-11-10T06:42:25.963Z,97.85
2022-11-10T06:44:27.529Z,98.05
2022-11-10T06:46:29.057Z,97.52
2022-11-10T06:48:30.491Z,98.23
2022-11-10T06:50:32.334Z,97.90
2022-11-10T06:52:33.824Z,97.88
2022-11-10T06:54:35.308Z,97.89
2022-11-10T06:56:36.839Z,97.91
2022-11-10T06:58:38.250Z,97.28
2022-11-10T07:00:40.351Z,97.89
2022-11-10T07:02:41.914Z,97.51
2022-11-10T07:04:43.344Z,97.68
2022-11-10T07:06:47.723Z,97.30
2022-11-10T07:08:49.371Z,97.67
2022-11-10T07:10:53.178Z,97.83
2022-11-10T07:12:59.219Z,97.03
2022-11-10T07:15:00.653Z,97.31
2022-11-10T07:17:02.102Z,97.04
2022-11-10T07:19:03.748Z,96.36
2022-11-10T07:21:06.408Z,96.50
2022-11-10T07:23:08.593Z,96.27
2022-11-10T07:25:11.328Z,96.86
2022-11-10T07:27:12.753Z,96.98
2022-11-10T07:29:14.187Z,97.29
2022-11-10T07:31:15.601Z,96.24
2022-11-10T07:33:17.036Z,96.39
2022-11-10T07:35:18.469Z,96.68
2022-11-10T07:37:19.866Z,96.80
2022-11-10T07:39:21.313Z,96.17
2022-11-10T07:41:22.845Z,96.30
2022-11-10T07:43:25.732Z,96.13
2022-11-10T07:45:28.246Z,96.11
2022-11-10T07:47:29.682Z,95.78
2022-11-10T07:49:31.097Z,96.27
2022-11-10T07:51:32.512Z,96.07
2022-11-10T07:53:34.316Z,95.61
2022-11-10T07:55:38.264Z,95.88
2022-11-10T07:57:39.965Z,96.18
2022-11-10T07:59:41.359Z,95.93
2022-11-10T08:01:42.864Z,95.61
2022-11-10T08:03:44.344Z,95.43
2022-11-10T08:05:45.840Z,95.13
2022-11-10T08:07:47.332Z,95.18
2022-11-10T08:09:48.831Z,95.21
2022-11-10T08:11:50.253Z,95.38
2022-11-10T08:13:51.660Z,95.21
2022-11-10T08:15:53.093Z,95.32
2022-11-10T08:18:00.111Z,95.57
2022-11-10T08:20:01.792Z,95.35
2022-11-10T08:22:03.204Z,95.38
2022-11-10T08:24:04.750Z,95.00
2022-11-10T08:26:06.178Z,95.07
2022-11-10T08:28:18.004Z,94.68
2022-11-10T08:30:19.427Z,94.86
2022-11-10T08:32:21.239Z,94.63
2022-11-10T08:34:23.036Z,94.17
2022-11-10T08:36:24.635Z,94.26
2022-11-10T08:38:26.060Z,94.03
2022-11-10T08:40:27.827Z,93.93
2022-11-10T08:42:29.294Z,93.76
2022-11-10T08:44:30.697Z,93.34
2022-11-10T08:46:32.126Z,92.76
2022-11-10T08:48:33.962Z,92.83
2022-11-10T08:50:35.882Z,92.89
2022-11-10T08:52:37.446Z,93.02
2022-11-10T08:54:38.850Z,92.89
2022-11-10T08:56:40.291Z,92.65
2022-11-10T08:58:48.782Z,92.24
2022-11-10T09:00:52.465Z,92.29
2022-11-10T09:02:55.478Z,91.98
2022-11-10T09:04:56.959Z,91.39
2022-11-10T09:06:58.416Z,91.18
2022-11-10T09:08:59.847Z,90.81
2022-11-10T09:11:04.633Z,90.48
2022-11-10T09:13:06.786Z,90.22
2022-11-10T09:15:09.911Z,90.09
2022-11-10T09:17:11.348Z,89.89
2022-11-10T09:19:18.467Z,89.87
2022-11-10T09:21:21.223Z,89.88
2022-11-10T09:23:24.980Z,89.35
2022-11-10T09:25:26.842Z,89.33
2022-11-10T09:27:28.299Z,88.58
2022-11-10T09:29:29.692Z,88.37
2022-11-10T09:31:31.163Z,88.31
2022-11-10T09:33:32.562Z,88.35
2022-11-10T09:35:34.273Z,88.44
2022-11-10T09:37:40.053Z,88.28
2022-11-10T09:39:41.558Z,87.87
2022-11-10T09:41:44.606Z,87.54
2022-11-10T09:44:04.666Z,87.36
2022-11-10T09:46:16.226Z,87.26
2022-11-10T09:48:25.770Z,86.92
2022-11-10T09:50:41.979Z,85.83
2022-11-10T09:52:45.532Z,86.27
2022-11-10T09:54:56.716Z,87.69
2022-11-10T09:57:02.409Z,86.87
2022-11-10T09:59:15.754Z,86.14
2022-11-10T10:01:32.279Z,86.44
2022-11-10T10:03:37.337Z,86.08
2022-11-10T10:05:52.321Z,85.80
2022-11-10T10:08:12.564Z,85.64
2022-11-10T10:10:32.145Z,85.14
2022-11-10T10:12:39.313Z,83.50
2022-11-10T10:15:05.139Z,83.76
2022-11-10T10:17:15.460Z,82.99
2022-11-10T10:19:49.434Z,82.00
2022-11-10T10:22:04.666Z,81.83
2022-11-10T10:24:19.835Z,81.97
2022-11-10T10:26:27.552Z,81.73
2022-11-10T10:28:35.408Z,82.04
2022-11-10T10:30:36.854Z,82.30
2022-11-10T10:32:38.262Z,81.50
2022-11-10T10:36:44.392Z,81.78
2022-11-10T10:38:49.851Z,81.95
2022-11-10T10:40:52.753Z,82.13
2022-11-10T10:42:54.283Z,81.80
2022-11-10T10:45:21.918Z,80.35
2022-11-10T10:47:36.381Z,79.45
2022-11-10T10:49:37.841Z,79.26
2022-11-10T10:51:39.326Z,79.61
2022-11-10T10:53:47.878Z,80.26
2022-11-10T10:55:54.811Z,80.17
2022-11-10T10:58:02.832Z,78.82
2022-11-10T11:00:30.765Z,78.99
2022-11-10T11:02:32.488Z,78.94
2022-11-10T11:04:36.475Z,77.80
2022-11-10T11:06:37.960Z,73.62
2022-11-10T11:08:39.578Z,70.98
2022-11-10T11:10:45.271Z,71.05
2022-11-10T11:12:46.831Z,69.27
2022-11-10T11:14:48.400Z,68.14
2022-11-10T11:16:51.145Z,67.79
2022-11-10T11:18:52.578Z,66.77
2022-11-10T11:21:13.066Z,65.48
2022-11-10T11:23:51.896Z,64.66
2022-11-10T11:25:57.721Z,66.05
2022-11-10T11:28:26.743Z,65.64
2022-11-10T11:30:41.925Z,65.81
2022-11-10T11:33:04.939Z,67.66
2022-11-10T11:35:12.389Z,66.96
2022-11-10T11:37:32.849Z,67.67
2022-11-10T11:39:34.212Z,69.58
2022-11-10T11:41:46.627Z,70.45
2022-11-10T11:44:25.586Z,71.81
2022-11-10T11:46:33.090Z,72.41
2022-11-10T11:48:52.857Z,72.59
2022-11-10T11:50:57.965Z,73.49
2022-11-10T11:53:14.234Z,73.80
2022-11-10T11:55:26.843Z,74.14
2022-11-10T11:57:45.389Z,74.40
2022-11-10T11:59:52.692Z,74.75
2022-11-10T12:02:18.350Z,75.07
2022-11-10T12:04:22.667Z,75.39
2022-11-10T12:06:47.770Z,75.58
2022-11-10T12:09:01.869Z,75.52
2022-11-10T12:11:31.570Z,75.34
2022-11-10T12:13:51.369Z,75.50
2022-11-10T12:15:59.444Z,75.70
2022-11-10T12:18:03.814Z,75.35
2022-11-10T12:20:26.055Z,75.30
2022-11-10T12:22:41.072Z,75.54
2022-11-10T12:24:54.826Z,75.43
2022-11-10T12:27:24.702Z,76.09
2022-11-10T12:29:41.154Z,76.21
2022-11-10T12:31:46.060Z,76.39
2022-11-10T12:33:57.139Z,76.07
2022-11-10T12:36:03.238Z,76.69
2022-11-10T12:38:11.889Z,76.93
2022-11-10T12:40:19.322Z,76.55
2022-11-10T12:42:24.248Z,76.31
2022-11-10T12:44:33.741Z,76.63
2022-11-10T12:46:35.203Z,77.00
2022-11-10T12:48:53.524Z,76.86
2022-11-10T12:51:12.507Z,76.97
2022-11-10T12:53:24.907Z,77.42
2022-11-10T12:55:36.697Z,76.96
2022-11-10T12:57:38.428Z,77.42
2022-11-10T12:59:48.724Z,77.40
2022-11-10T13:02:01.474Z,77.63
2022-11-10T13:04:03.008Z,77.31
2022-11-10T13:06:07.448Z,77.75
2022-11-10T13:08:29.575Z,77.31
2022-11-10T13:10:31.246Z,77.30
2022-11-10T13:12:33.060Z,77.68
2022-11-10T13:14:34.643Z,77.39
2022-11-10T13:16:39.167Z,76.82
2022-11-10T13:18:40.554Z,77.10
2022-11-10T13:20:45.970Z,76.81
2022-11-10T13:22:47.420Z,76.49
2022-11-10T13:24:48.911Z,77.04
2022-11-10T13:26:54.212Z,76.88
2022-11-10T13:28:57.790Z,76.87
2022-11-10T13:30:59.579Z,76.85
2022-11-10T13:33:23.015Z,76.33
2022-11-10T13:35:27.940Z,76.45
2022-11-10T13:37:29.332Z,76.51
2022-11-10T13:39:34.072Z,76.98
2022-11-10T13:41:48.992Z,76.96
2022-11-10T13:43:53.337Z,76.98
2022-11-10T13:46:05.584Z,77.29
2022-11-10T13:48:12.960Z,76.83
2022-11-10T13:50:28.697Z,77.15
2022-11-10T13:52:39.403Z,77.12
2022-11-10T13:55:10.492Z,77.34
2022-11-10T13:57:23.744Z,77.03
2022-11-10T13:59:28.525Z,77.44
2022-11-10T14:01:30.513Z,76.86
2022-11-10T14:03:47.643Z,77.07
2022-11-10T14:06:04.237Z,76.57
2022-11-10T14:08:05.624Z,76.67
2022-11-10T14:10:23.625Z,76.79
2022-11-10T14:12:30.781Z,76.68
2022-11-10T14:14:51.369Z,76.84
2022-11-10T14:16:54.393Z,77.04
2022-11-10T14:19:04.985Z,77.13
2022-11-10T14:21:11.331Z,76.99
2022-11-10T14:23:22.761Z,77.40
2022-11-10T14:25:27.771Z,77.16
2022-11-10T14:27:33.549Z,77.08
2022-11-10T14:29:40.608Z,76.91
2022-11-10T14:31:44.033Z,77.45
2022-11-10T14:33:57.158Z,77.52
2022-11-10T14:36:01.654Z,77.47
2022-11-10T14:38:06.126Z,77.45
2022-11-10T14:40:15.265Z,77.38
2022-11-10T14:42:22.541Z,77.15
2022-11-10T14:44:26.627Z,77.38
2022-11-10T14:46:28.466Z,77.31
2022-11-10T14:48:32.742Z,77.09
2022-11-10T14:50:35.449Z,77.13
2022-11-10T14:52:41.380Z,77.06
2022-11-10T14:54:46.497Z,77.45
2022-11-10T14:56:48.364Z,77.23
2022-11-10T14:58:51.165Z,77.04
2022-11-10T15:00:53.852Z,77.45
2022-11-10T15:02:57.491Z,77.62
2022-11-10T15:04:59.428Z,77.58
2022-11-10T15:07:01.046Z,77.87
2022-11-10T15:09:14.487Z,77.84
2022-11-10T15:11:54.406Z,77.79
2022-11-10T15:13:55.840Z,78.02
2022-11-10T15:16:22.163Z,77.74
2022-11-10T15:18:29.293Z,77.73
2022-11-10T15:20:30.782Z,77.96
2022-11-10T15:22:36.368Z,77.94
2022-11-10T15:24:42.002Z,78.43
2022-11-10T15:26:43.616Z,77.78
2022-11-10T15:28:46.895Z,77.87
2022-11-10T15:30:57.689Z,77.96
2022-11-10T15:33:02.207Z,77.77
2022-11-10T15:35:29.050Z,77.98
2022-11-10T15:37:31.861Z,78.20
2022-11-10T15:39:33.414Z,78.45
2022-11-10T15:41:35.197Z,78.05
2022-11-10T15:43:36.772Z,78.03
2022-11-10T15:45:38.503Z,78.11
2022-11-10T15:47:41.182Z,78.28
2022-11-10T15:49:43.803Z,78.34
2022-11-10T15:51:45.280Z,78.02
2022-11-10T15:53:48.892Z,78.06
2022-11-10T15:55:50.355Z,78.63
2022-11-10T15:57:51.827Z,78.50
2022-11-10T15:59:53.433Z,78.27
2022-11-10T16:01:55.186Z,78.17
2022-11-10T16:03:56.828Z,78.56
2022-11-10T16:05:58.442Z,77.95
2022-11-10T16:07:59.895Z,78.04
2022-11-10T16:10:01.485Z,78.28
2022-11-10T16:12:03.204Z,78.14
2022-11-10T16:14:05.399Z,78.12
2022-11-10T16:16:07.221Z,78.38
2022-11-10T16:18:17.530Z,78.31
2022-11-10T16:20:18.994Z,78.05
2022-11-10T16:22:20.412Z,78.33
2022-11-10T16:24:21.861Z,78.57
2022-11-10T16:26:26.234Z,78.63
2022-11-10T16:28:28.018Z,78.65
2022-11-10T16:30:30.305Z,78.95
2022-11-10T16:32:31.808Z,78.96
2022-11-10T16:34:33.321Z,78.69
2022-11-10T16:36:34.993Z,78.77
2022-11-10T16:38:36.435Z,78.71
2022-11-10T16:40:37.901Z,78.78
2022-11-10T16:42:39.334Z,79.13
2022-11-10T16:44:42.709Z,78.82
2022-11-10T16:46:47.554Z,78.93
2022-11-10T16:48:51.105Z,78.51
2022-11-10T16:50:54.284Z,78.81
2022-11-10T16:52:56.558Z,78.60
2022-11-10T16:54:58.019Z,78.69
2022-11-10T16:56:59.522Z,78.77
2022-11-10T16:59:01.056Z,78.53
2022-11-10T17:01:02.667Z,78.55
2022-11-10T17:03:15.184Z,78.55
2022-11-10T17:05:16.865Z,78.34
2022-11-10T17:07:24.351Z,78.06
2022-11-10T17:09:26.660Z,78.27
2022-11-10T17:11:28.187Z,78.68
2022-11-10T17:13:29.622Z,78.48
2022-11-10T17:15:32.252Z,78.33
2022-11-10T17:17:35.726Z,77.95
2022-11-10T17:19:37.268Z,77.90
2022-11-10T17:21:40.288Z,78.00
2022-11-10T17:23:42.472Z,78.23
2022-11-10T17:25:44.499Z,77.98
2022-11-10T17:27:45.971Z,77.90
2022-11-10T17:29:47.526Z,77.96
2022-11-10T17:31:50.458Z,77.70
2022-11-10T17:33:52.165Z,77.96
2022-11-10T17:35:54.341Z,77.49
2022-11-10T17:37:58.143Z,77.22
2022-11-10T17:40:07.222Z,77.06
2022-11-10T17:42:13.658Z,77.16
2022-11-10T17:44:16.666Z,77.12
2022-11-10T17:46:18.124Z,76.53
2022-11-10T17:48:19.621Z,76.44
2022-11-10T17:50:23.113Z,76.80
2022-11-10T17:52:24.575Z,76.76
2022-11-10T17:54:25.988Z,76.39
2022-11-10T17:56:27.431Z,76.03
2022-11-10T17:58:30.510Z,76.01
2022-11-10T18:00:31.945Z,76.08
2022-11-10T18:02:33.372Z,76.30
2022-11-10T18:04:34.781Z,76.26
2022-11-10T18:06:36.557Z,75.79
2022-11-10T18:08:38.514Z,75.71
2022-11-10T18:10:51.908Z,75.95
2022-11-10T18:12:53.535Z,75.56
2022-11-10T18:14:55.002Z,75.72
2022-11-10T18:16:56.493Z,75.46
2022-11-10T18:18:58.716Z,75.63
2022-11-10T18:21:00.184Z,75.79
2022-11-10T18:23:01.672Z,75.69
2022-11-10T18:25:03.740Z,75.73
2022-11-10T18:27:05.175Z,75.78
2022-11-10T18:29:06.630Z,76.21
2022-11-10T18:31:12.647Z,75.58
2022-11-10T18:33:14.101Z,76.06
2022-11-10T18:35:15.592Z,75.90
2022-11-10T18:37:17.802Z,76.53
2022-11-10T18:39:19.236Z,76.07
2022-11-10T18:41:39.327Z,76.47
2022-11-10T18:43:40.731Z,76.72
2022-11-10T18:45:42.301Z,76.88
2022-11-10T18:47:43.713Z,77.53
2022-11-10T18:49:45.201Z,77.00
2022-11-10T18:51:46.708Z,77.07
2022-11-10T18:53:48.204Z,77.33
2022-11-10T18:55:56.310Z,78.00
2022-11-10T18:57:57.765Z,78.00
2022-11-10T18:59:59.490Z,77.66
2022-11-10T19:02:01.000Z,77.67
2022-11-10T19:04:02.499Z,78.05
2022-11-10T19:06:04.842Z,77.74
2022-11-10T19:08:07.991Z,78.11
2022-11-10T19:10:09.552Z,77.94
2022-11-10T19:12:11.991Z,77.90
2022-11-10T19:14:13.450Z,78.44
2022-11-10T19:16:17.634Z,78.19
2022-11-10T19:18:19.092Z,78.32
2022-11-10T19:20:20.537Z,78.76
2022-11-10T19:22:22.257Z,78.27
2022-11-10T19:24:28.066Z,78.57
2022-11-10T19:26:29.905Z,78.37
2022-11-10T19:28:31.473Z,78.39
2022-11-10T19:30:32.926Z,78.92
2022-11-10T19:32:34.435Z,78.58
2022-11-10T19:34:36.058Z,79.11
2022-11-10T19:36:37.944Z,79.13
2022-11-10T19:38:40.497Z,79.00
2022-11-10T19:40:42.596Z,79.07
2022-11-10T19:42:44.124Z,79.38
2022-11-10T19:44:45.606Z,79.30
2022-11-10T19:46:47.046Z,79.10
2022-11-10T19:48:48.814Z,79.43
2022-11-10T19:50:54.530Z,79.64
2022-11-10T19:52:55.983Z,79.34
2022-11-10T19:54:57.456Z,79.33
2022-11-10T19:56:59.086Z,79.65
2022-11-10T19:59:00.582Z,79.36
2022-11-10T20:01:02.195Z,79.29
2022-11-10T20:03:03.745Z,79.28
2022-11-10T20:05:16.121Z,79.70
2022-11-10T20:07:36.221Z,79.81
2022-11-10T20:09:37.667Z,79.69
2022-11-10T20:11:39.105Z,79.34
2022-11-10T20:13:41.070Z,79.79
2022-11-10T20:15:43.589Z,79.57
2022-11-10T20:17:45.067Z,79.77
2022-11-10T20:19:46.503Z,79.66
2022-11-10T20:21:47.997Z,79.79
2022-11-10T20:23:54.034Z,79.81
2022-11-10T20:26:14.074Z,79.98
2022-11-10T20:28:15.507Z,80.13
2022-11-10T20:30:22.448Z,80.08
2022-11-10T20:32:26.410Z,80.06
2022-11-10T20:34:27.854Z,79.90
2022-11-10T20:36:30.804Z,80.17
2022-11-10T20:38:32.323Z,80.28
2022-11-10T20:40:48.898Z,80.19
2022-11-10T20:42:50.529Z,79.96
2022-11-10T20:44:51.986Z,79.98
2022-11-10T20:46:54.778Z,80.04
2022-11-10T20:48:56.491Z,80.40
2022-11-10T20:50:57.945Z,80.43
2022-11-10T20:52:59.457Z,80.60
2022-11-10T20:55:05.378Z,80.55
2022-11-10T20:57:06.872Z,80.46
2022-11-10T20:59:08.355Z,80.28
2022-11-10T21:01:15.146Z,80.78
2022-11-10T21:03:16.668Z,80.47
2022-11-10T21:05:18.130Z,80.64
2022-11-10T21:07:19.571Z,80.81
2022-11-10T21:09:21.107Z,80.97
2022-11-10T21:11:41.393Z,80.99
2022-11-10T21:13:42.934Z,81.15
2022-11-10T21:15:50.023Z,80.88
2022-11-10T21:17:51.497Z,81.04
2022-11-10T21:19:55.046Z,81.07
2022-11-10T21:21:56.515Z,80.51
2022-11-10T21:23:57.967Z,80.88
2022-11-10T21:26:01.123Z,80.93
2022-11-10T21:28:02.880Z,80.84
2022-11-10T21:30:05.017Z,80.98
2022-11-10T21:32:08.575Z,81.10
2022-11-10T21:34:10.081Z,81.16
2022-11-10T21:36:11.629Z,81.36
2022-11-10T21:38:14.318Z,81.18
2022-11-10T21:40:16.157Z,81.30
2022-11-10T21:42:20.728Z,81.52
2022-11-10T21:44:22.181Z,81.76
2022-11-10T21:46:23.851Z,81.72
2022-11-10T21:48:25.266Z,81.92
2022-11-10T21:50:26.773Z,81.75
2022-11-10T21:52:34.640Z,81.69
2022-11-10T21:54:36.133Z,81.80
2022-11-10T21:56:37.813Z,81.48
2022-11-10T21:58:39.599Z,81.23
2022-11-10T22:00:41.040Z,81.41
2022-11-10T22:02:42.563Z,81.78
2022-11-10T22:04:44.070Z,81.70
2022-11-10T22:07:04.226Z,82.15
2022-11-10T22:09:05.721Z,82.03
2022-11-10T22:11:31.904Z,82.26
2022-11-10T22:13:51.679Z,82.11
2022-11-10T22:16:11.645Z,82.01
2022-11-10T22:18:34.082Z,81.82
2022-11-10T22:20:35.522Z,82.09
2022-11-10T22:22:36.977Z,81.91
2022-11-10T22:24:38.500Z,82.43
2022-11-10T22:26:39.929Z,82.44
2022-11-10T22:28:41.862Z,82.27
2022-11-10T22:30:43.303Z,82.40
2022-11-10T22:32:44.716Z,82.03
2022-11-10T22:34:46.143Z,82.17
2022-11-10T22:36:50.055Z,81.99
2022-11-10T22:38:51.497Z,81.99
2022-11-10T22:41:11.597Z,81.75
2022-11-10T22:43:38.929Z,81.98
2022-11-10T22:45:44.728Z,82.00
2022-11-10T22:48:04.319Z,82.05
2022-11-10T22:50:06.309Z,82.83
2022-11-10T22:52:07.741Z,82.49
2022-11-10T22:54:11.708Z,83.02
2022-11-10T22:56:13.433Z,83.43
2022-11-10T22:58:14.875Z,83.43
2022-11-10T23:00:16.879Z,83.42
2022-11-10T23:02:18.314Z,83.42
2022-11-10T23:04:19.824Z,83.40
2022-11-10T23:06:21.277Z,83.55
2022-11-10T23:08:22.739Z,83.22
2022-11-10T23:10:24.185Z,83.60
2022-11-10T23:12:25.595Z,83.19
2022-11-10T23:14:27.037Z,83.30
2022-11-10T23:16:32.045Z,83.21
2022-11-10T23:18:33.652Z,83.36
2022-11-10T23:20:35.093Z,83.00
2022-11-10T23:22:36.571Z,83.11
2022-11-10T23:24:38.099Z,82.68
2022-11-10T23:26:39.569Z,82.81
2022-11-10T23:28:41.210Z,82.85
2022-11-10T23:30:42.656Z,83.04
2022-11-10T23:32:44.146Z,82.73
2022-11-10T23:34:45.786Z,83.32
2022-11-10T23:36:47.310Z,82.82
2022-11-10T23:38:48.899Z,83.25
2022-11-10T23:40:55.716Z,83.64
2022-11-10T23:42:57.162Z,83.84
2022-11-10T23:44:58.567Z,83.82
2022-11-10T23:47:00.059Z,83.37
2022-11-10T23:49:01.470Z,83.86
2022-11-10T23:51:04.435Z,83.76
2022-11-10T23:53:05.898Z,83.56
2022-11-10T23:55:07.923Z,83.54
2022-11-10T23:57:09.435Z,83.18
2022-11-10T23:59:10.861Z,83.12
